Monje, Argentina
Current Conditions -  °F | °C
As of 10:00 AM on Thursday 18 Dec 2014 (Local Time) from SAAR Reporting Station
Clear Clear  
Wind Chill: 82°   Ceiling: Unl
Heat Index: 83°   Visibility: 6mi
Dew Point: 63°   Wind: 3mph
Humidity: 51%   Direction: 230°SW
Pressure: 29.91"   Gusts: NA
Location:  32.35°S, 60.93°W
Report Text: SAAR 181300Z 23003KT CAVOK 28/17 Q1013
Loading
Personal Weather Stations






























Interactive Weather Map New forecast layout! Learn more

10-Day Weather Forecast

Advertisements
Track Severe Weather on mobile